Time;durP1;ratioP1;P1;durP2;ratioP2;P2;SDS_P1;SDS_P2;PMS_P1;PMS_P2;Temp;Humidity;BMP_temperature;BMP_pressure;BME280_temperature;BME280_humidity;BME280_pressure;Samples;Min_cycle;Max_cycle;Signal;HPM_P1;HPM_P2
2023/11/16 00:01:05;;;;;;;3.08;1.60;;;23.40;48.10;;;;;;6182958;28;80447;-61
2023/11/16 00:04:06;;;;;;;1.70;1.45;;;23.50;48.10;;;;;;6200195;28;81063;-58
2023/11/16 00:07:08;;;;;;;1.38;1.10;;;23.50;48.00;;;;;;6199438;28;80689;-59
2023/11/16 00:10:09;;;;;;;2.00;1.40;;;23.40;48.20;;;;;;6195271;28;81139;-60
2023/11/16 00:13:09;;;;;;;1.65;1.20;;;23.40;48.20;;;;;;6187659;28;80540;-60
2023/11/16 00:16:10;;;;;;;2.28;1.30;;;23.40;48.10;;;;;;6174277;28;82468;-59
2023/11/16 00:19:10;;;;;;;1.73;1.30;;;23.50;48.10;;;;;;6176582;28;82520;-59
2023/11/16 00:22:11;;;;;;;1.33;1.23;;;23.50;48.10;;;;;;6174467;28;83419;-59
2023/11/16 00:25:16;;;;;;;2.42;1.48;;;23.50;48.10;;;;;;6177096;28;80712;-59
2023/11/16 00:28:18;;;;;;;2.13;1.33;;;23.50;48.00;;;;;;6177584;28;80868;-68
2023/11/16 00:31:18;;;;;;;1.70;1.33;;;23.50;48.00;;;;;;6173499;28;83250;-70
2023/11/16 00:34:19;;;;;;;1.77;1.40;;;23.50;48.00;;;;;;6176482;28;81157;-71
2023/11/16 00:37:19;;;;;;;2.03;1.35;;;23.50;48.00;;;;;;6187504;28;80473;-70
2023/11/16 00:40:22;;;;;;;2.92;1.60;;;23.50;48.00;;;;;;6176911;28;80173;-67
2023/11/16 00:43:27;;;;;;;2.30;1.35;;;23.50;47.90;;;;;;6174947;28;81480;-68
2023/11/16 00:46:27;;;;;;;1.50;1.30;;;23.50;47.90;;;;;;6176052;28;81008;-71
2023/11/16 00:49:28;;;;;;;1.95;1.33;;;23.50;47.80;;;;;;6175993;28;80542;-68
2023/11/16 00:52:28;;;;;;;1.63;1.27;;;23.50;47.90;;;;;;6176011;28;81402;-68
2023/11/16 00:55:31;;;;;;;1.40;1.27;;;23.50;47.70;;;;;;6175340;28;80453;-66
2023/11/16 00:58:32;;;;;;;1.80;1.60;;;23.50;47.70;;;;;;6175294;28;80762;-71
2023/11/16 01:01:33;;;;;;;2.35;1.38;;;23.50;47.70;;;;;;6175869;28;81627;-69
2023/11/16 01:04:34;;;;;;;3.22;1.70;;;23.50;47.60;;;;;;6173307;28;81727;-70
2023/11/16 01:07:36;;;;;;;1.98;1.67;;;23.50;47.60;;;;;;6175188;28;80880;-72
2023/11/16 01:10:38;;;;;;;2.30;1.33;;;23.50;47.60;;;;;;6193937;28;80980;-70
2023/11/16 01:13:38;;;;;;;2.65;1.30;;;23.50;47.70;;;;;;6195594;28;80762;-69
2023/11/16 01:16:42;;;;;;;2.85;1.30;;;23.50;47.70;;;;;;6197584;28;80717;-70
2023/11/16 01:19:45;;;;;;;2.00;1.58;;;23.50;47.60;;;;;;6176091;28;81735;-68
2023/11/16 01:22:50;;;;;;;1.90;1.40;;;23.50;47.50;;;;;;6178872;28;82990;-72
2023/11/16 01:25:52;;;;;;;3.55;1.80;;;23.50;47.60;;;;;;6168257;28;80924;-69
2023/11/16 01:29:01;;;;;;;1.65;1.33;;;23.50;47.50;;;;;;6177355;28;81436;-69
2023/11/16 01:32:01;;;;;;;3.17;1.73;;;23.50;47.50;;;;;;6178572;28;81971;-68
2023/11/16 01:35:03;;;;;;;1.98;1.40;;;23.50;47.40;;;;;;6179403;28;79982;-67
2023/11/16 01:38:05;;;;;;;2.95;1.65;;;23.50;47.50;;;;;;6171707;28;80625;-67
2023/11/16 01:41:09;;;;;;;2.17;1.55;;;23.40;47.30;;;;;;6180833;28;80199;-66
2023/11/16 01:44:10;;;;;;;2.72;1.67;;;23.40;47.40;;;;;;6179510;28;83521;-66
2023/11/16 01:47:14;;;;;;;4.22;1.60;;;23.40;47.50;;;;;;6178453;28;80600;-64
2023/11/16 01:50:14;;;;;;;1.90;1.60;;;23.40;47.40;;;;;;6178774;28;83694;-69
2023/11/16 01:53:15;;;;;;;2.83;1.80;;;23.40;47.70;;;;;;6171550;28;83334;-70
2023/11/16 01:56:16;;;;;;;2.50;1.50;;;23.40;47.60;;;;;;6175341;28;82105;-70
2023/11/16 01:59:16;;;;;;;2.95;1.48;;;23.40;47.50;;;;;;6177952;28;83761;-66
2023/11/16 02:02:17;;;;;;;1.90;1.52;;;23.40;47.40;;;;;;6178903;28;83242;-66
2023/11/16 02:05:18;;;;;;;2.25;1.58;;;23.40;47.70;;;;;;6178266;28;81735;-69
2023/11/16 02:08:19;;;;;;;2.75;1.58;;;23.40;47.70;;;;;;6179721;28;80883;-71
2023/11/16 02:11:19;;;;;;;1.50;1.40;;;23.40;47.90;;;;;;6179236;28;83122;-71
2023/11/16 02:14:20;;;;;;;2.55;1.70;;;23.40;47.70;;;;;;6178289;28;83115;-72
2023/11/16 02:17:21;;;;;;;3.63;2.00;;;23.40;47.80;;;;;;6177656;28;91898;-70
2023/11/16 02:20:25;;;;;;;2.38;1.77;;;23.40;47.70;;;;;;6177013;28;82245;-72
2023/11/16 02:23:25;;;;;;;2.40;2.00;;;23.50;47.80;;;;;;6177631;28;81149;-71
2023/11/16 02:26:26;;;;;;;2.70;2.17;;;23.40;47.70;;;;;;6179305;28;80927;-72
2023/11/16 02:29:27;;;;;;;2.17;1.70;;;23.50;47.70;;;;;;6199993;28;80561;-71
2023/11/16 02:32:27;;;;;;;3.13;2.03;;;23.40;47.90;;;;;;6192595;28;81274;-70
2023/11/16 02:35:28;;;;;;;3.38;1.90;;;23.40;47.90;;;;;;6199550;28;80220;-69
2023/11/16 02:38:28;;;;;;;2.58;1.67;;;23.40;47.90;;;;;;6197245;28;80760;-72
2023/11/16 02:41:29;;;;;;;2.35;1.65;;;23.40;47.90;;;;;;6195535;28;82064;-71
2023/11/16 02:44:30;;;;;;;3.38;2.20;;;23.40;48.00;;;;;;6177897;28;80538;-72
2023/11/16 02:47:31;;;;;;;2.40;1.60;;;23.40;48.00;;;;;;6166371;28;80874;-72
2023/11/16 02:50:32;;;;;;;5.25;2.35;;;23.50;48.00;;;;;;6178393;28;80738;-72
2023/11/16 02:53:34;;;;;;;3.20;2.40;;;23.50;47.90;;;;;;6185050;28;80457;-72
2023/11/16 02:56:36;;;;;;;4.93;2.55;;;23.50;47.70;;;;;;6192353;28;82627;-70
2023/11/16 02:59:37;;;;;;;6.30;2.50;;;23.50;47.70;;;;;;6176495;28;83032;-70
2023/11/16 03:02:40;;;;;;;6.68;2.20;;;23.40;47.40;;;;;;6188730;28;81437;-68
2023/11/16 03:05:40;;;;;;;4.40;2.90;;;23.40;47.50;;;;;;6178604;28;80863;-68
2023/11/16 03:08:41;;;;;;;4.03;2.00;;;23.40;47.50;;;;;;6185710;28;80619;-73
2023/11/16 03:11:41;;;;;;;3.38;2.15;;;23.40;47.50;;;;;;6183860;28;80907;-68
2023/11/16 03:14:42;;;;;;;3.55;2.47;;;23.40;47.70;;;;;;6177785;28;80345;-72
2023/11/16 03:17:46;;;;;;;4.50;2.33;;;23.40;47.70;;;;;;6175746;28;80460;-66
2023/11/16 03:20:47;;;;;;;4.60;2.72;;;23.40;47.60;;;;;;6177743;28;80476;-67
2023/11/16 03:23:48;;;;;;;3.47;2.38;;;23.40;47.40;;;;;;6181812;28;80893;-68
2023/11/16 03:26:49;;;;;;;4.57;2.33;;;23.40;47.40;;;;;;6182042;28;80574;-65
2023/11/16 03:29:49;;;;;;;3.72;2.33;;;23.40;47.50;;;;;;6182930;28;80357;-64
2023/11/16 03:32:50;;;;;;;3.65;2.30;;;23.40;47.50;;;;;;6176107;28;80499;-71
2023/11/16 03:35:50;;;;;;;4.85;2.53;;;23.30;47.60;;;;;;6159351;28;82406;-72
2023/11/16 03:38:51;;;;;;;4.75;2.70;;;23.30;47.60;;;;;;6176751;28;80433;-73
2023/11/16 03:41:52;;;;;;;5.18;2.67;;;23.30;47.60;;;;;;6184582;28;80522;-71
2023/11/16 03:44:52;;;;;;;3.33;2.30;;;23.30;47.60;;;;;;6201615;28;81962;-66
2023/11/16 03:47:53;;;;;;;4.18;2.53;;;23.30;47.70;;;;;;6200378;28;80422;-64
2023/11/16 03:50:53;;;;;;;4.40;2.53;;;23.30;47.60;;;;;;6180252;28;80696;-63
2023/11/16 03:53:54;;;;;;;8.13;2.72;;;23.30;47.50;;;;;;6176546;28;83637;-65
2023/11/16 03:56:54;;;;;;;4.13;2.38;;;23.40;47.50;;;;;;6177659;28;80484;-66
2023/11/16 03:59:55;;;;;;;3.60;2.40;;;23.30;47.60;;;;;;6175298;28;80483;-70
2023/11/16 04:02:58;;;;;;;4.28;2.75;;;23.30;47.50;;;;;;6176140;28;82808;-68
2023/11/16 04:05:59;;;;;;;5.93;3.35;;;23.30;47.50;;;;;;6177187;28;80581;-68
2023/11/16 04:08:59;;;;;;;4.93;2.72;;;23.30;47.60;;;;;;6175285;28;82216;-58
2023/11/16 04:12:00;;;;;;;5.43;3.00;;;23.40;47.60;;;;;;6176705;28;81311;-58
2023/11/16 04:15:00;;;;;;;4.57;2.42;;;23.30;47.60;;;;;;6197422;28;81137;-58
2023/11/16 04:18:03;;;;;;;7.55;3.20;;;23.30;47.60;;;;;;6175273;28;80482;-59
2023/11/16 04:21:03;;;;;;;4.25;2.22;;;23.30;47.50;;;;;;6174851;28;80386;-59
2023/11/16 04:24:08;;;;;;;3.92;2.42;;;23.40;47.10;;;;;;6190910;28;80581;-59
2023/11/16 04:27:09;;;;;;;5.20;3.08;;;23.40;47.30;;;;;;6177835;28;80806;-71
2023/11/16 04:30:11;;;;;;;4.97;2.88;;;23.40;47.40;;;;;;6178770;28;82802;-72
2023/11/16 04:33:11;;;;;;;4.20;2.28;;;23.40;47.50;;;;;;6176131;28;80730;-71
2023/11/16 04:36:12;;;;;;;5.30;2.85;;;23.40;47.40;;;;;;6170520;28;80251;-74
2023/11/16 04:39:13;;;;;;;5.10;2.75;;;23.40;47.40;;;;;;6178175;28;80332;-67
2023/11/16 04:42:13;;;;;;;5.82;2.83;;;23.40;47.40;;;;;;6177280;28;80555;-73
2023/11/16 04:45:14;;;;;;;4.13;2.50;;;23.50;47.40;;;;;;6178868;28;80950;-71
2023/11/16 04:48:14;;;;;;;5.38;2.65;;;23.50;47.50;;;;;;6177047;28;80821;-71
2023/11/16 04:51:19;;;;;;;3.75;2.55;;;23.50;47.10;;;;;;6176114;28;81927;-68
2023/11/16 04:54:20;;;;;;;5.53;2.83;;;23.50;46.80;;;;;;6177110;28;80150;-61
2023/11/16 04:57:20;;;;;;;6.30;2.70;;;23.50;46.70;;;;;;6181088;28;81105;-61
2023/11/16 05:00:21;;;;;;;6.80;3.13;;;23.50;46.80;;;;;;6173974;28;80326;-66
2023/11/16 05:03:21;;;;;;;7.13;2.67;;;23.60;47.10;;;;;;6178169;28;87639;-63
2023/11/16 05:06:22;;;;;;;9.23;3.25;;;23.60;47.10;;;;;;6188617;28;80256;-67
2023/11/16 05:09:22;;;;;;;5.28;2.85;;;23.60;47.70;;;;;;6159504;28;82877;-64
2023/11/16 05:12:23;;;;;;;6.72;2.90;;;23.60;47.80;;;;;;6151784;28;80649;-61
2023/11/16 05:15:23;;;;;;;3.67;2.60;;;23.70;47.90;;;;;;6171818;28;80944;-66
2023/11/16 05:18:24;;;;;;;4.97;2.80;;;23.60;47.80;;;;;;6185545;28;80589;-60
2023/11/16 05:21:24;;;;;;;4.65;2.60;;;23.70;47.70;;;;;;6168153;28;81574;-59
2023/11/16 05:24:25;;;;;;;8.52;2.85;;;23.70;47.60;;;;;;6184399;28;80511;-60
2023/11/16 05:27:27;;;;;;;5.15;2.50;;;23.70;47.30;;;;;;6181812;28;80594;-61
2023/11/16 05:30:27;;;;;;;10.60;2.58;;;23.70;47.70;;;;;;6181285;28;80296;-62
2023/11/16 05:33:28;;;;;;;4.40;2.55;;;23.70;47.80;;;;;;6170437;28;80618;-56
2023/11/16 05:36:29;;;;;;;9.00;3.10;;;23.70;47.80;;;;;;6172856;28;80455;-58
2023/11/16 05:39:30;;;;;;;9.68;3.45;;;23.80;48.20;;;;;;6181327;28;80647;-56
2023/11/16 05:42:31;;;;;;;7.28;2.85;;;23.80;48.00;;;;;;6175977;28;81820;-58
2023/11/16 05:45:31;;;;;;;8.73;3.10;;;23.80;48.00;;;;;;6170463;28;87467;-55
2023/11/16 05:48:32;;;;;;;4.05;2.53;;;23.80;48.00;;;;;;6174601;28;85117;-57
2023/11/16 05:51:33;;;;;;;9.20;3.55;;;23.80;48.00;;;;;;6177877;28;80446;-58
2023/11/16 05:54:33;;;;;;;4.47;2.70;;;23.80;48.10;;;;;;6181574;28;80427;-58
2023/11/16 05:57:35;;;;;;;4.30;2.70;;;23.80;48.40;;;;;;6155704;28;81874;-60
2023/11/16 06:00:36;;;;;;;8.73;2.65;;;23.80;48.20;;;;;;6146723;28;82786;-60
2023/11/16 06:03:37;;;;;;;8.40;3.30;;;23.80;48.20;;;;;;6173237;28;80987;-59
2023/11/16 06:06:37;;;;;;;7.57;3.10;;;23.80;48.10;;;;;;6172749;28;80970;-60
2023/11/16 06:09:38;;;;;;;6.05;2.72;;;23.80;48.20;;;;;;6170845;28;80561;-59
2023/11/16 06:12:39;;;;;;;5.28;2.88;;;23.80;48.20;;;;;;6175882;28;80841;-58
2023/11/16 06:15:39;;;;;;;8.57;2.60;;;23.80;48.10;;;;;;6161212;28;82919;-73
2023/11/16 06:18:40;;;;;;;6.15;2.28;;;23.70;48.10;;;;;;6175203;28;81344;-70
2023/11/16 06:21:41;;;;;;;5.55;2.95;;;23.70;48.10;;;;;;6175212;28;81004;-70
2023/11/16 06:24:42;;;;;;;5.68;2.70;;;23.70;48.00;;;;;;6180055;28;83626;-68
2023/11/16 06:27:42;;;;;;;4.13;2.65;;;23.80;48.10;;;;;;6175391;28;80621;-69
2023/11/16 06:30:43;;;;;;;7.60;2.83;;;23.80;47.90;;;;;;6176272;28;80383;-68
2023/11/16 06:33:44;;;;;;;5.07;2.78;;;23.80;48.00;;;;;;6179705;28;81415;-71
2023/11/16 06:36:44;;;;;;;5.82;2.70;;;23.80;47.80;;;;;;6179134;28;81537;-56
2023/11/16 06:39:45;;;;;;;4.72;2.42;;;23.80;47.80;;;;;;6179190;28;80327;-57
2023/11/16 06:42:47;;;;;;;5.25;2.50;;;23.80;47.90;;;;;;6179934;28;80548;-56
2023/11/16 06:45:48;;;;;;;3.95;2.80;;;23.80;47.80;;;;;;6176430;28;80307;-59
2023/11/16 06:48:48;;;;;;;6.30;3.13;;;23.80;47.90;;;;;;6179028;28;80883;-54
2023/11/16 06:51:49;;;;;;;4.32;2.70;;;23.70;47.70;;;;;;6179916;28;80379;-56
2023/11/16 06:54:49;;;;;;;6.10;2.88;;;23.70;47.60;;;;;;6179916;28;82085;-57
2023/11/16 06:57:50;;;;;;;4.75;2.88;;;23.70;47.70;;;;;;6178303;28;80570;-56
2023/11/16 07:00:51;;;;;;;7.38;4.18;;;23.80;47.70;;;;;;6174932;28;80584;-57
2023/11/16 07:03:51;;;;;;;5.18;2.60;;;23.70;47.60;;;;;;6180149;28;81348;-56
2023/11/16 07:06:52;;;;;;;4.68;2.88;;;23.70;47.50;;;;;;6177936;28;80451;-58
2023/11/16 07:09:53;;;;;;;5.70;2.50;;;23.70;47.50;;;;;;6180921;28;80630;-58
2023/11/16 07:12:53;;;;;;;4.15;2.70;;;23.70;47.50;;;;;;6178980;28;80677;-56
2023/11/16 07:15:56;;;;;;;7.05;2.92;;;23.70;47.50;;;;;;6171203;28;80257;-57
2023/11/16 07:18:57;;;;;;;4.00;2.45;;;23.70;47.60;;;;;;6178362;28;83054;-58
2023/11/16 07:21:58;;;;;;;4.85;2.13;;;23.70;47.60;;;;;;6179691;28;80524;-58
2023/11/16 07:24:59;;;;;;;4.53;2.38;;;23.60;47.50;;;;;;6178134;28;80503;-57
2023/11/16 07:27:59;;;;;;;2.92;2.22;;;23.60;47.60;;;;;;6174400;28;80840;-58
2023/11/16 07:31:00;;;;;;;4.22;2.05;;;23.60;47.60;;;;;;6174533;28;84207;-59
2023/11/16 07:34:02;;;;;;;2.33;1.83;;;23.60;47.50;;;;;;6178954;28;80499;-56
2023/11/16 07:37:03;;;;;;;3.85;2.17;;;23.60;47.60;;;;;;6162715;28;81363;-58
2023/11/16 07:40:06;;;;;;;2.80;2.20;;;23.60;47.70;;;;;;6175055;28;80794;-58
2023/11/16 07:43:07;;;;;;;4.03;2.17;;;23.60;47.70;;;;;;6164962;28;81269;-56
2023/11/16 07:46:07;;;;;;;4.00;2.30;;;23.60;47.60;;;;;;6170532;28;84077;-56
2023/11/16 07:49:09;;;;;;;3.58;2.10;;;23.60;47.50;;;;;;6096297;28;85203;-57
2023/11/16 07:52:09;;;;;;;3.13;2.00;;;23.60;47.50;;;;;;6175502;28;80610;-56
2023/11/16 07:55:10;;;;;;;4.75;2.47;;;23.60;47.50;;;;;;6175801;28;81074;-58
2023/11/16 07:58:13;;;;;;;5.13;1.95;;;23.60;47.60;;;;;;6173086;28;83543;-58
2023/11/16 08:01:17;;;;;;;4.97;2.33;;;23.60;47.60;;;;;;6164051;28;80457;-56
2023/11/16 08:04:18;;;;;;;5.72;2.65;;;23.60;47.60;;;;;;6168027;28;80537;-58
2023/11/16 08:07:23;;;;;;;3.67;1.42;;;23.60;47.80;;;;;;6157963;28;82893;-57
2023/11/16 08:10:27;;;;;;;4.32;2.10;;;23.60;47.50;;;;;;6169229;28;83518;-56
2023/11/16 08:13:27;;;;;;;5.78;2.13;;;23.60;47.90;;;;;;6166139;28;80593;-60
2023/11/16 08:16:29;;;;;;;4.97;2.00;;;23.60;48.00;;;;;;6169248;28;83613;-58
2023/11/16 08:19:31;;;;;;;6.13;2.00;;;23.50;48.00;;;;;;6168921;28;82774;-57
2023/11/16 08:22:34;;;;;;;6.72;2.65;;;23.50;47.90;;;;;;6174043;28;81040;-58
2023/11/16 08:25:37;;;;;;;4.93;2.10;;;23.50;47.80;;;;;;6171727;28;83144;-57
2023/11/16 08:28:38;;;;;;;5.75;2.17;;;23.50;47.60;;;;;;6169263;28;81437;-58
2023/11/16 08:31:39;;;;;;;6.00;1.70;;;23.50;47.40;;;;;;6171113;28;80432;-58
2023/11/16 08:34:39;;;;;;;7.20;2.03;;;23.50;47.20;;;;;;6171707;28;80804;-58
2023/11/16 08:37:41;;;;;;;3.35;1.83;;;23.50;47.10;;;;;;6173177;28;80442;-58
2023/11/16 08:40:41;;;;;;;3.63;1.80;;;23.50;47.00;;;;;;6173052;28;83164;-58
2023/11/16 08:43:42;;;;;;;5.97;2.13;;;23.50;47.00;;;;;;6171657;28;80466;-69
2023/11/16 08:46:43;;;;;;;3.65;2.28;;;23.50;47.00;;;;;;6172468;28;82117;-69
2023/11/16 08:49:44;;;;;;;2.65;1.98;;;23.50;46.90;;;;;;6171710;28;80427;-67
2023/11/16 08:52:48;;;;;;;3.63;1.90;;;23.40;46.90;;;;;;6173585;28;80118;-66
2023/11/16 08:55:48;;;;;;;3.13;1.45;;;23.40;46.80;;;;;;6173537;28;80628;-68
2023/11/16 08:58:52;;;;;;;2.08;1.35;;;23.40;46.90;;;;;;6174598;28;81699;-69
2023/11/16 09:01:52;;;;;;;3.03;1.83;;;23.40;46.80;;;;;;6176030;28;80600;-68
2023/11/16 09:04:55;;;;;;;2.50;1.50;;;23.40;46.80;;;;;;6175629;28;80196;-67
2023/11/16 09:07:55;;;;;;;2.15;1.42;;;23.40;46.90;;;;;;6175267;28;80621;-65
2023/11/16 09:10:56;;;;;;;5.03;2.08;;;23.40;46.90;;;;;;6167277;28;80604;-67
2023/11/16 09:13:56;;;;;;;3.60;1.58;;;23.40;46.90;;;;;;6173904;28;81234;-67
2023/11/16 09:17:02;;;;;;;2.15;1.38;;;23.40;46.80;;;;;;6174828;28;81042;-68
2023/11/16 09:20:04;;;;;;;2.55;1.60;;;23.40;46.90;;;;;;6175046;28;80421;-69
2023/11/16 09:23:07;;;;;;;2.58;1.77;;;23.40;46.90;;;;;;6174205;28;80438;-67
2023/11/16 09:26:10;;;;;;;2.40;1.50;;;23.40;46.90;;;;;;6176558;28;80569;-67
2023/11/16 09:29:12;;;;;;;1.63;1.30;;;23.40;46.90;;;;;;6165529;28;80367;-72
2023/11/16 09:32:12;;;;;;;2.50;1.40;;;23.30;46.90;;;;;;6176613;28;80442;-72
2023/11/16 09:35:16;;;;;;;3.55;1.60;;;23.40;47.20;;;;;;6178624;28;80830;-72
2023/11/16 09:38:18;;;;;;;1.95;1.27;;;23.40;47.40;;;;;;6178641;28;80855;-57
2023/11/16 09:41:21;;;;;;;2.97;1.42;;;23.30;47.60;;;;;;6177284;28;80108;-58
2023/11/16 09:44:24;;;;;;;2.17;1.20;;;23.40;47.90;;;;;;6179225;28;81168;-49
2023/11/16 09:47:29;;;;;;;3.60;1.40;;;23.50;47.40;;;;;;6173885;28;81658;-50
2023/11/16 09:50:31;;;;;;;4.13;1.43;;;23.40;46.90;;;;;;6175594;28;80819;-52
2023/11/16 09:53:31;;;;;;;6.25;2.10;;;23.50;46.80;;;;;;6180815;28;80960;-56
2023/11/16 09:56:40;;;;;;;3.20;1.55;;;23.50;46.60;;;;;;6179899;28;80190;-59
2023/11/16 09:59:44;;;;;;;2.47;1.50;;;23.50;46.50;;;;;;6176740;28;80965;-61
2023/11/16 10:02:45;;;;;;;3.05;1.40;;;23.50;46.20;;;;;;6179030;28;80977;-60
2023/11/16 10:05:46;;;;;;;2.20;1.73;;;23.50;46.10;;;;;;6162022;28;84684;-60
2023/11/16 10:08:49;;;;;;;2.88;1.55;;;23.50;45.70;;;;;;6174849;28;80507;-60
2023/11/16 10:11:50;;;;;;;3.33;1.75;;;23.50;45.50;;;;;;6179457;28;80787;-60
2023/11/16 10:14:53;;;;;;;3.53;1.88;;;23.60;45.40;;;;;;6173930;28;80779;-66
2023/11/16 10:17:55;;;;;;;2.47;1.65;;;23.60;45.30;;;;;;6177965;28;80625;-71
2023/11/16 10:20:57;;;;;;;2.97;1.63;;;23.60;45.30;;;;;;6180170;28;80610;-66
2023/11/16 10:23:57;;;;;;;3.17;1.40;;;23.60;45.20;;;;;;6178922;28;80309;-64
2023/11/16 10:26:58;;;;;;;3.03;1.40;;;23.60;45.10;;;;;;6179825;28;80321;-64
2023/11/16 10:30:00;;;;;;;3.00;1.40;;;23.60;45.20;;;;;;6179030;28;81522;-62
2023/11/16 10:33:01;;;;;;;2.47;1.48;;;23.60;45.00;;;;;;6177081;28;80307;-65
2023/11/16 10:36:01;;;;;;;3.10;1.95;;;23.60;44.90;;;;;;6177381;28;87616;-71
2023/11/16 10:39:03;;;;;;;3.28;1.77;;;23.60;44.80;;;;;;6178394;28;81426;-68
2023/11/16 10:42:04;;;;;;;3.85;1.98;;;23.60;44.90;;;;;;6177851;28;80530;-69
2023/11/16 10:45:05;;;;;;;2.22;1.90;;;23.60;44.80;;;;;;6178012;28;81051;-68
2023/11/16 10:48:06;;;;;;;3.88;2.05;;;23.60;44.80;;;;;;6172472;28;83063;-65
2023/11/16 10:51:06;;;;;;;4.97;2.08;;;23.60;44.80;;;;;;6176678;28;80670;-51
2023/11/16 10:54:12;;;;;;;3.88;1.85;;;23.70;44.80;;;;;;6177579;28;80933;-53
2023/11/16 10:57:13;;;;;;;3.55;2.30;;;23.60;44.70;;;;;;6175795;28;81635;-55
2023/11/16 11:00:16;;;;;;;3.17;2.00;;;23.60;44.50;;;;;;6178152;28;82433;-55
2023/11/16 11:03:18;;;;;;;6.22;2.50;;;23.60;44.70;;;;;;6164824;28;81092;-57
2023/11/16 11:06:19;;;;;;;5.45;2.40;;;23.70;44.60;;;;;;6172680;28;80314;-55
2023/11/16 11:09:22;;;;;;;8.30;2.92;;;23.70;44.60;;;;;;6174068;28;80875;-61
2023/11/16 11:12:23;;;;;;;7.00;2.40;;;23.70;44.60;;;;;;6168239;28;83811;-68
2023/11/16 11:15:24;;;;;;;9.73;2.67;;;23.70;45.00;;;;;;6175002;28;80623;-69
2023/11/16 11:18:24;;;;;;;5.35;2.90;;;23.70;45.90;;;;;;6178400;28;80793;-64
2023/11/16 11:21:27;;;;;;;6.28;2.53;;;23.60;46.40;;;;;;6177840;28;80420;-64
2023/11/16 11:24:27;;;;;;;4.55;2.45;;;23.50;48.00;;;;;;6179215;28;80526;-62
2023/11/16 11:27:29;;;;;;;5.43;2.53;;;23.40;48.70;;;;;;6174584;28;80409;-61
2023/11/16 11:30:30;;;;;;;6.55;2.38;;;23.30;47.60;;;;;;6176879;28;83438;-63
2023/11/16 11:33:30;;;;;;;3.45;2.22;;;23.20;48.40;;;;;;6177649;28;81474;-61
2023/11/16 11:36:31;;;;;;;4.15;2.30;;;23.10;49.40;;;;;;6177529;28;81939;-64
2023/11/16 11:39:31;;;;;;;5.45;2.38;;;23.10;48.30;;;;;;6174846;28;81722;-61
2023/11/16 11:42:32;;;;;;;3.58;2.42;;;23.10;49.00;;;;;;6178679;28;81380;-62
2023/11/16 11:45:35;;;;;;;4.10;2.10;;;23.00;48.90;;;;;;6179279;28;80893;-65
2023/11/16 11:48:35;;;;;;;3.30;2.22;;;23.00;48.90;;;;;;6178164;28;80613;-65
2023/11/16 11:51:36;;;;;;;4.22;2.25;;;23.00;49.30;;;;;;6176174;28;80295;-65
2023/11/16 11:54:36;;;;;;;5.60;2.45;;;23.00;48.90;;;;;;6173975;28;81292;-64
2023/11/16 11:57:39;;;;;;;3.88;2.45;;;23.00;48.70;;;;;;6177884;28;80969;-64
2023/11/16 12:00:39;;;;;;;8.48;2.53;;;23.10;48.80;;;;;;6172564;28;80541;-64
2023/11/16 12:03:40;;;;;;;3.70;2.28;;;23.00;48.10;;;;;;6174941;28;84548;-66
2023/11/16 12:06:40;;;;;;;3.47;2.20;;;23.00;49.00;;;;;;6174747;28;82337;-61
2023/11/16 12:09:40;;;;;;;5.60;2.40;;;22.90;48.00;;;;;;6170545;28;80509;-61
2023/11/16 12:12:41;;;;;;;8.85;2.58;;;22.90;48.40;;;;;;6170638;28;80325;-62
2023/11/16 12:15:41;;;;;;;9.82;3.20;;;22.90;48.10;;;;;;6174405;28;85437;-63
2023/11/16 12:18:45;;;;;;;8.70;2.53;;;22.90;48.40;;;;;;6176860;28;81110;-62
2023/11/16 12:21:45;;;;;;;9.48;2.97;;;22.80;47.90;;;;;;6178950;28;80675;-64
2023/11/16 12:24:49;;;;;;;6.07;2.38;;;22.90;48.20;;;;;;6172412;28;81839;-62
2023/11/16 12:27:50;;;;;;;6.07;2.72;;;22.80;48.00;;;;;;6179568;28;81197;-64
2023/11/16 12:30:51;;;;;;;4.10;2.25;;;22.80;48.70;;;;;;6175760;28;80571;-68
2023/11/16 12:33:52;;;;;;;3.78;1.80;;;22.90;49.50;;;;;;6176774;28;80876;-67
2023/11/16 12:36:58;;;;;;;2.85;1.92;;;22.90;50.40;;;;;;6179218;28;80647;-66
2023/11/16 12:39:58;;;;;;;;;;;22.90;50.70;;;;;;6181095;28;80267;-65
2023/11/16 12:43:00;;;;;;;3.17;1.75;;;22.90;51.10;;;;;;6185394;28;80022;-66
2023/11/16 12:46:00;;;;;;;3.08;1.77;;;23.00;51.30;;;;;;6177341;28;80603;-67
2023/11/16 12:49:01;;;;;;;4.05;2.08;;;23.00;51.50;;;;;;6176508;28;82266;-65
2023/11/16 12:52:01;;;;;;;6.25;2.00;;;23.00;52.00;;;;;;6172405;28;80559;-66
2023/11/16 12:55:04;;;;;;;4.35;2.00;;;23.00;51.70;;;;;;6172962;28;81460;-64
2023/11/16 12:58:05;;;;;;;4.95;1.90;;;22.90;51.70;;;;;;6174265;28;81943;-59
2023/11/16 13:01:12;;;;;;;4.55;2.47;;;23.00;51.80;;;;;;6177578;28;81563;-64
2023/11/16 13:04:13;;;;;;;7.35;2.78;;;22.90;51.70;;;;;;6184456;28;81551;-76
2023/11/16 13:07:13;;;;;;;6.93;2.53;;;22.90;52.00;;;;;;6184192;28;80079;-76
2023/11/16 13:10:14;;;;;;;6.75;2.40;;;23.00;52.00;;;;;;6179863;28;80782;-76
2023/11/16 13:13:15;;;;;;;8.00;2.70;;;23.00;52.10;;;;;;6179022;28;80621;-74
2023/11/16 13:16:15;;;;;;;5.68;2.95;;;23.00;52.90;;;;;;6183138;28;86140;-72
2023/11/16 13:19:16;;;;;;;3.42;2.20;;;23.20;51.40;;;;;;6179621;28;80503;-52
2023/11/16 13:22:16;;;;;;;4.40;2.95;;;23.10;52.00;;;;;;6174965;28;81483;-52
2023/11/16 13:25:17;;;;;;;4.97;2.70;;;23.30;51.00;;;;;;6178876;28;80295;-50
2023/11/16 13:28:19;;;;;;;3.88;2.63;;;23.50;50.50;;;;;;6178548;28;80748;-51
2023/11/16 13:31:19;;;;;;;3.67;2.63;;;23.60;50.70;;;;;;6176180;28;80554;-55
2023/11/16 13:34:20;;;;;;;3.65;2.60;;;23.70;50.40;;;;;;6177303;28;80753;-55
2023/11/16 13:37:21;;;;;;;5.82;2.80;;;23.70;51.30;;;;;;6171799;28;81470;-52
2023/11/16 13:40:21;;;;;;;5.82;3.03;;;23.60;51.10;;;;;;6180423;28;80591;-54
2023/11/16 13:43:22;;;;;;;4.35;2.88;;;23.50;50.80;;;;;;6175931;28;82622;-52
2023/11/16 13:46:22;;;;;;;5.72;2.45;;;23.40;50.30;;;;;;6176386;28;81072;-57
2023/11/16 13:49:23;;;;;;;4.70;3.13;;;23.40;51.40;;;;;;6178239;28;81700;-59
2023/11/16 13:52:23;;;;;;;4.57;3.15;;;23.40;50.80;;;;;;6183357;28;80423;-59
2023/11/16 13:55:24;;;;;;;6.03;3.08;;;23.40;50.90;;;;;;6180547;28;81874;-54
2023/11/16 13:58:24;;;;;;;7.32;2.95;;;23.40;50.60;;;;;;6172384;28;80869;-56
2023/11/16 14:01:25;;;;;;;5.95;3.75;;;23.40;50.60;;;;;;6179251;28;80248;-54
2023/11/16 14:04:25;;;;;;;7.43;3.80;;;23.40;50.60;;;;;;6178626;28;81375;-52
2023/11/16 14:07:26;;;;;;;5.15;3.03;;;23.40;50.70;;;;;;6174533;28;81068;-55
2023/11/16 14:10:26;;;;;;;6.15;3.47;;;23.40;50.70;;;;;;6173165;28;81930;-55
2023/11/16 14:13:27;;;;;;;6.63;3.50;;;23.40;50.60;;;;;;6174288;28;80794;-60
2023/11/16 14:16:29;;;;;;;7.85;4.03;;;23.40;50.60;;;;;;6174137;28;80734;-59
2023/11/16 14:19:31;;;;;;;6.65;3.65;;;23.40;50.50;;;;;;6174105;28;84787;-59
2023/11/16 14:22:32;;;;;;;5.70;3.40;;;23.40;50.50;;;;;;6166991;28;87296;-58
2023/11/16 14:25:33;;;;;;;5.63;3.42;;;23.40;50.50;;;;;;6150178;28;80333;-59
2023/11/16 14:28:34;;;;;;;5.93;3.63;;;23.40;50.40;;;;;;6156939;28;81497;-59
2023/11/16 14:31:34;;;;;;;5.03;3.33;;;23.40;50.40;;;;;;6174514;28;80488;-55
2023/11/16 14:34:35;;;;;;;6.22;3.22;;;23.40;50.40;;;;;;6181645;28;81282;-52
2023/11/16 14:37:35;;;;;;;5.55;3.42;;;23.40;50.40;;;;;;6202886;28;80604;-53
2023/11/16 14:40:36;;;;;;;6.07;3.40;;;23.40;50.40;;;;;;6193322;28;81140;-53
2023/11/16 14:43:36;;;;;;;5.97;3.50;;;23.40;50.40;;;;;;6201952;28;81732;-55
2023/11/16 14:46:37;;;;;;;5.20;3.20;;;23.40;50.30;;;;;;6202441;28;80500;-50
2023/11/16 14:49:37;;;;;;;4.85;3.28;;;23.40;50.30;;;;;;6184779;28;80443;-52
2023/11/16 14:52:38;;;;;;;5.38;2.92;;;23.40;50.30;;;;;;6185619;28;81526;-58
2023/11/16 14:55:39;;;;;;;6.32;3.30;;;23.40;50.30;;;;;;6196589;28;81050;-58
2023/11/16 14:58:39;;;;;;;5.35;3.28;;;23.40;50.30;;;;;;6190383;28;80491;-58
2023/11/16 15:01:40;;;;;;;6.22;3.45;;;23.40;50.20;;;;;;6177836;28;81787;-61
2023/11/16 15:04:41;;;;;;;5.55;3.28;;;23.40;50.20;;;;;;6177094;28;80075;-57
2023/11/16 15:07:42;;;;;;;6.95;3.53;;;23.40;50.20;;;;;;6177356;28;80623;-58
2023/11/16 15:10:42;;;;;;;9.57;3.95;;;23.40;50.10;;;;;;6177864;28;82244;-58
2023/11/16 15:13:43;;;;;;;5.63;3.50;;;23.40;50.10;;;;;;6177145;28;80142;-58
2023/11/16 15:16:48;;;;;;;5.43;3.28;;;23.40;50.10;;;;;;6175752;28;81716;-58
2023/11/16 15:19:49;;;;;;;5.15;3.20;;;23.40;50.00;;;;;;6176826;28;80861;-58
2023/11/16 15:22:52;;;;;;;6.78;3.38;;;23.40;50.70;;;;;;6177306;28;80903;-59
2023/11/16 15:25:53;;;;;;;6.80;3.35;;;23.40;50.00;;;;;;6177690;28;80492;-59
2023/11/16 15:28:53;;;;;;;5.47;3.30;;;23.40;50.50;;;;;;6175989;28;80899;-59
2023/11/16 15:31:54;;;;;;;5.57;2.97;;;23.40;49.90;;;;;;6175260;28;81633;-59
2023/11/16 15:34:55;;;;;;;5.82;2.63;;;23.40;49.80;;;;;;6176661;28;80540;-59
2023/11/16 15:37:57;;;;;;;4.90;3.03;;;23.40;49.80;;;;;;6176135;28;81254;-59
2023/11/16 15:40:57;;;;;;;6.25;3.13;;;23.40;49.80;;;;;;6176742;28;80702;-59
2023/11/16 15:43:59;;;;;;;4.72;2.90;;;23.40;49.80;;;;;;6165305;28;81370;-59